sensor_id;sensor_type;location;lat;lon;timestamp;temperature;humidity
81218;DHT22;70689;52.494;13.420;2023-09-18T00:01:04;21.70;53.90
81218;DHT22;70689;52.494;13.420;2023-09-18T00:03:31;21.70;53.90
81218;DHT22;70689;52.494;13.420;2023-09-18T00:05:58;21.70;53.70
81218;DHT22;70689;52.494;13.420;2023-09-18T00:08:24;21.60;54.10
81218;DHT22;70689;52.494;13.420;2023-09-18T00:10:52;21.60;54.30
81218;DHT22;70689;52.494;13.420;2023-09-18T00:13:18;21.50;54.10
81218;DHT22;70689;52.494;13.420;2023-09-18T00:15:44;21.60;54.40
81218;DHT22;70689;52.494;13.420;2023-09-18T00:18:17;21.60;54.20
81218;DHT22;70689;52.494;13.420;2023-09-18T00:20:43;21.70;53.90
81218;DHT22;70689;52.494;13.420;2023-09-18T00:23:09;21.60;54.00
81218;DHT22;70689;52.494;13.420;2023-09-18T00:25:35;21.60;54.00
81218;DHT22;70689;52.494;13.420;2023-09-18T00:28:02;21.60;53.90
81218;DHT22;70689;52.494;13.420;2023-09-18T00:30:28;21.70;53.80
81218;DHT22;70689;52.494;13.420;2023-09-18T00:32:53;21.50;54.10
81218;DHT22;70689;52.494;13.420;2023-09-18T00:35:19;21.40;54.40
81218;DHT22;70689;52.494;13.420;2023-09-18T00:37:45;21.40;54.30
81218;DHT22;70689;52.494;13.420;2023-09-18T00:40:11;21.50;54.30
81218;DHT22;70689;52.494;13.420;2023-09-18T00:42:36;21.50;54.20
81218;DHT22;70689;52.494;13.420;2023-09-18T00:45:02;21.40;54.40
81218;DHT22;70689;52.494;13.420;2023-09-18T00:47:28;21.30;54.90
81218;DHT22;70689;52.494;13.420;2023-09-18T00:49:54;21.20;55.10
81218;DHT22;70689;52.494;13.420;2023-09-18T00:52:22;21.30;55.20
81218;DHT22;70689;52.494;13.420;2023-09-18T00:54:49;21.30;55.10
81218;DHT22;70689;52.494;13.420;2023-09-18T00:57:15;21.30;55.30
81218;DHT22;70689;52.494;13.420;2023-09-18T00:59:41;21.20;55.30
81218;DHT22;70689;52.494;13.420;2023-09-18T01:02:06;21.30;55.30
81218;DHT22;70689;52.494;13.420;2023-09-18T01:04:33;21.30;54.90
81218;DHT22;70689;52.494;13.420;2023-09-18T01:06:59;21.30;55.10
81218;DHT22;70689;52.494;13.420;2023-09-18T01:09:31;21.30;54.90
81218;DHT22;70689;52.494;13.420;2023-09-18T01:17:05;21.30;55.00
81218;DHT22;70689;52.494;13.420;2023-09-18T01:19:40;21.20;55.30
81218;DHT22;70689;52.494;13.420;2023-09-18T01:22:08;21.10;55.20
81218;DHT22;70689;52.494;13.420;2023-09-18T01:24:36;21.20;55.40
81218;DHT22;70689;52.494;13.420;2023-09-18T01:27:02;21.20;55.30
81218;DHT22;70689;52.494;13.420;2023-09-18T01:29:30;21.10;55.00
81218;DHT22;70689;52.494;13.420;2023-09-18T01:31:56;21.10;55.10
81218;DHT22;70689;52.494;13.420;2023-09-18T01:34:29;21.00;55.40
81218;DHT22;70689;52.494;13.420;2023-09-18T01:36:58;21.00;55.70
81218;DHT22;70689;52.494;13.420;2023-09-18T01:39:25;21.00;56.00
81218;DHT22;70689;52.494;13.420;2023-09-18T01:41:57;21.00;55.80
81218;DHT22;70689;52.494;13.420;2023-09-18T01:44:23;20.90;55.90
81218;DHT22;70689;52.494;13.420;2023-09-18T01:46:49;20.90;56.00
81218;DHT22;70689;52.494;13.420;2023-09-18T01:49:21;21.00;56.00
81218;DHT22;70689;52.494;13.420;2023-09-18T01:51:51;21.00;56.10
81218;DHT22;70689;52.494;13.420;2023-09-18T01:54:17;21.00;55.80
81218;DHT22;70689;52.494;13.420;2023-09-18T01:56:43;20.90;55.80
81218;DHT22;70689;52.494;13.420;2023-09-18T01:59:08;20.90;56.10
81218;DHT22;70689;52.494;13.420;2023-09-18T02:01:35;20.80;56.40
81218;DHT22;70689;52.494;13.420;2023-09-18T02:04:00;20.70;56.50
81218;DHT22;70689;52.494;13.420;2023-09-18T02:06:26;20.60;56.80
81218;DHT22;70689;52.494;13.420;2023-09-18T02:08:51;20.70;57.00
81218;DHT22;70689;52.494;13.420;2023-09-18T02:11:18;20.70;57.00
81218;DHT22;70689;52.494;13.420;2023-09-18T02:13:44;20.70;56.70
81218;DHT22;70689;52.494;13.420;2023-09-18T02:16:09;20.70;56.90
81218;DHT22;70689;52.494;13.420;2023-09-18T02:18:35;20.70;56.60
81218;DHT22;70689;52.494;13.420;2023-09-18T02:21:01;20.60;57.00
81218;DHT22;70689;52.494;13.420;2023-09-18T02:23:26;20.60;57.30
81218;DHT22;70689;52.494;13.420;2023-09-18T02:25:56;20.60;57.20
81218;DHT22;70689;52.494;13.420;2023-09-18T02:28:22;20.60;57.20
81218;DHT22;70689;52.494;13.420;2023-09-18T02:30:48;20.50;57.20
81218;DHT22;70689;52.494;13.420;2023-09-18T02:33:14;20.40;58.80
81218;DHT22;70689;52.494;13.420;2023-09-18T02:35:40;20.40;57.70
81218;DHT22;70689;52.494;13.420;2023-09-18T02:38:06;20.50;57.70
81218;DHT22;70689;52.494;13.420;2023-09-18T02:40:32;20.40;57.70
81218;DHT22;70689;52.494;13.420;2023-09-18T02:42:57;20.50;57.70
81218;DHT22;70689;52.494;13.420;2023-09-18T02:45:23;20.40;57.50
81218;DHT22;70689;52.494;13.420;2023-09-18T02:47:48;20.50;57.50
81218;DHT22;70689;52.494;13.420;2023-09-18T02:50:14;20.50;57.60
81218;DHT22;70689;52.494;13.420;2023-09-18T02:52:40;20.40;57.60
81218;DHT22;70689;52.494;13.420;2023-09-18T02:55:05;20.30;58.00
81218;DHT22;70689;52.494;13.420;2023-09-18T02:57:31;20.30;58.30
81218;DHT22;70689;52.494;13.420;2023-09-18T02:59:57;20.20;58.50
81218;DHT22;70689;52.494;13.420;2023-09-18T03:02:22;20.20;58.40
81218;DHT22;70689;52.494;13.420;2023-09-18T03:04:49;20.20;58.40
81218;DHT22;70689;52.494;13.420;2023-09-18T03:07:14;20.30;58.10
81218;DHT22;70689;52.494;13.420;2023-09-18T03:09:41;20.20;58.30
81218;DHT22;70689;52.494;13.420;2023-09-18T03:12:07;20.20;58.60
81218;DHT22;70689;52.494;13.420;2023-09-18T03:14:33;20.20;58.50
81218;DHT22;70689;52.494;13.420;2023-09-18T03:16:59;20.30;58.30
81218;DHT22;70689;52.494;13.420;2023-09-18T03:19:25;20.20;58.40
81218;DHT22;70689;52.494;13.420;2023-09-18T03:21:52;20.30;58.30
81218;DHT22;70689;52.494;13.420;2023-09-18T03:24:18;20.30;58.20
81218;DHT22;70689;52.494;13.420;2023-09-18T03:26:44;20.30;58.20
81218;DHT22;70689;52.494;13.420;2023-09-18T03:29:10;20.20;58.50
81218;DHT22;70689;52.494;13.420;2023-09-18T03:31:35;20.20;58.60
81218;DHT22;70689;52.494;13.420;2023-09-18T03:34:01;20.20;58.60
81218;DHT22;70689;52.494;13.420;2023-09-18T03:36:27;20.10;58.60
81218;DHT22;70689;52.494;13.420;2023-09-18T03:38:53;20.20;58.60
81218;DHT22;70689;52.494;13.420;2023-09-18T03:41:18;20.10;58.90
81218;DHT22;70689;52.494;13.420;2023-09-18T03:43:44;20.00;59.10
81218;DHT22;70689;52.494;13.420;2023-09-18T03:46:09;19.90;59.60
81218;DHT22;70689;52.494;13.420;2023-09-18T03:48:35;19.90;59.60
81218;DHT22;70689;52.494;13.420;2023-09-18T03:51:06;20.00;59.30
81218;DHT22;70689;52.494;13.420;2023-09-18T03:53:33;20.00;59.30
81218;DHT22;70689;52.494;13.420;2023-09-18T03:56:00;20.00;59.30
81218;DHT22;70689;52.494;13.420;2023-09-18T03:58:26;20.00;60.30
81218;DHT22;70689;52.494;13.420;2023-09-18T04:00:52;20.00;59.10
81218;DHT22;70689;52.494;13.420;2023-09-18T04:03:18;20.00;59.10
81218;DHT22;70689;52.494;13.420;2023-09-18T04:05:44;19.90;59.20
81218;DHT22;70689;52.494;13.420;2023-09-18T04:08:10;20.00;59.30
81218;DHT22;70689;52.494;13.420;2023-09-18T04:10:36;19.90;59.40
81218;DHT22;70689;52.494;13.420;2023-09-18T04:13:02;20.00;59.30
81218;DHT22;70689;52.494;13.420;2023-09-18T04:15:28;20.00;60.10
81218;DHT22;70689;52.494;13.420;2023-09-18T04:17:56;20.00;59.00
81218;DHT22;70689;52.494;13.420;2023-09-18T04:20:21;20.00;59.00
81218;DHT22;70689;52.494;13.420;2023-09-18T04:26:02;20.00;59.10
81218;DHT22;70689;52.494;13.420;2023-09-18T04:28:28;19.90;59.30
81218;DHT22;70689;52.494;13.420;2023-09-18T04:30:54;19.80;60.40
81218;DHT22;70689;52.494;13.420;2023-09-18T04:33:19;19.80;60.10
81218;DHT22;70689;52.494;13.420;2023-09-18T04:35:46;19.70;60.30
81218;DHT22;70689;52.494;13.420;2023-09-18T04:38:12;19.70;60.50
81218;DHT22;70689;52.494;13.420;2023-09-18T04:40:40;19.70;60.50
81218;DHT22;70689;52.494;13.420;2023-09-18T04:43:06;19.80;60.20
81218;DHT22;70689;52.494;13.420;2023-09-18T04:45:32;19.80;60.00
81218;DHT22;70689;52.494;13.420;2023-09-18T04:47:58;19.80;60.10
81218;DHT22;70689;52.494;13.420;2023-09-18T04:50:24;19.90;60.00
81218;DHT22;70689;52.494;13.420;2023-09-18T04:52:52;19.80;60.10
81218;DHT22;70689;52.494;13.420;2023-09-18T04:55:19;19.70;60.20
81218;DHT22;70689;52.494;13.420;2023-09-18T04:57:47;19.80;60.30
81218;DHT22;70689;52.494;13.420;2023-09-18T05:00:13;19.80;60.20
81218;DHT22;70689;52.494;13.420;2023-09-18T05:02:39;19.90;60.20
81218;DHT22;70689;52.494;13.420;2023-09-18T05:05:06;19.90;59.90
81218;DHT22;70689;52.494;13.420;2023-09-18T05:07:34;20.00;59.60
81218;DHT22;70689;52.494;13.420;2023-09-18T05:10:00;20.00;59.50
81218;DHT22;70689;52.494;13.420;2023-09-18T05:12:25;19.90;59.60
81218;DHT22;70689;52.494;13.420;2023-09-18T05:14:51;19.90;59.80
81218;DHT22;70689;52.494;13.420;2023-09-18T05:17:17;19.90;60.00
81218;DHT22;70689;52.494;13.420;2023-09-18T05:19:43;19.80;60.00
81218;DHT22;70689;52.494;13.420;2023-09-18T05:22:09;19.90;60.00
81218;DHT22;70689;52.494;13.420;2023-09-18T05:24:38;19.90;59.80
81218;DHT22;70689;52.494;13.420;2023-09-18T05:27:04;19.90;59.80
81218;DHT22;70689;52.494;13.420;2023-09-18T05:29:31;19.90;60.00
81218;DHT22;70689;52.494;13.420;2023-09-18T05:31:57;20.00;59.90
81218;DHT22;70689;52.494;13.420;2023-09-18T05:34:23;20.00;59.70
81218;DHT22;70689;52.494;13.420;2023-09-18T05:36:49;20.00;59.70
81218;DHT22;70689;52.494;13.420;2023-09-18T05:39:15;20.00;59.70
81218;DHT22;70689;52.494;13.420;2023-09-18T05:41:41;20.10;59.50
81218;DHT22;70689;52.494;13.420;2023-09-18T05:44:07;20.10;59.40
81218;DHT22;70689;52.494;13.420;2023-09-18T05:46:36;20.20;59.40
81218;DHT22;70689;52.494;13.420;2023-09-18T05:49:02;20.30;59.20
81218;DHT22;70689;52.494;13.420;2023-09-18T05:51:29;20.30;59.20
81218;DHT22;70689;52.494;13.420;2023-09-18T05:53:54;20.30;59.30
81218;DHT22;70689;52.494;13.420;2023-09-18T05:56:20;20.30;59.00
81218;DHT22;70689;52.494;13.420;2023-09-18T05:58:52;20.50;58.90
81218;DHT22;70689;52.494;13.420;2023-09-18T06:01:21;20.50;58.50
81218;DHT22;70689;52.494;13.420;2023-09-18T06:03:46;20.50;58.60
81218;DHT22;70689;52.494;13.420;2023-09-18T06:06:13;20.60;58.40
81218;DHT22;70689;52.494;13.420;2023-09-18T06:08:39;20.60;58.10
81218;DHT22;70689;52.494;13.420;2023-09-18T06:11:05;20.80;57.70
81218;DHT22;70689;52.494;13.420;2023-09-18T06:13:30;20.70;57.90
81218;DHT22;70689;52.494;13.420;2023-09-18T06:15:56;20.80;57.80
81218;DHT22;70689;52.494;13.420;2023-09-18T06:18:22;20.90;57.60
81218;DHT22;70689;52.494;13.420;2023-09-18T06:20:49;20.90;57.50
81218;DHT22;70689;52.494;13.420;2023-09-18T06:23:15;20.90;57.10
81218;DHT22;70689;52.494;13.420;2023-09-18T06:25:40;21.00;57.10
81218;DHT22;70689;52.494;13.420;2023-09-18T06:28:06;21.10;57.10
81218;DHT22;70689;52.494;13.420;2023-09-18T06:30:32;21.20;56.60
81218;DHT22;70689;52.494;13.420;2023-09-18T06:32:59;21.20;56.80
81218;DHT22;70689;52.494;13.420;2023-09-18T06:35:25;21.20;56.50
81218;DHT22;70689;52.494;13.420;2023-09-18T06:37:51;21.20;56.80
81218;DHT22;70689;52.494;13.420;2023-09-18T06:40:17;21.30;56.10
81218;DHT22;70689;52.494;13.420;2023-09-18T06:42:42;21.30;56.30
81218;DHT22;70689;52.494;13.420;2023-09-18T06:45:08;21.40;56.30
81218;DHT22;70689;52.494;13.420;2023-09-18T06:47:34;21.40;56.30
81218;DHT22;70689;52.494;13.420;2023-09-18T06:50:00;21.50;56.40
81218;DHT22;70689;52.494;13.420;2023-09-18T06:52:26;21.60;55.90
81218;DHT22;70689;52.494;13.420;2023-09-18T06:54:53;21.70;55.60
81218;DHT22;70689;52.494;13.420;2023-09-18T06:57:19;22.30;54.30
81218;DHT22;70689;52.494;13.420;2023-09-18T06:59:47;24.00;49.30
81218;DHT22;70689;52.494;13.420;2023-09-18T07:02:12;26.00;42.80
81218;DHT22;70689;52.494;13.420;2023-09-18T07:04:41;27.60;38.80
81218;DHT22;70689;52.494;13.420;2023-09-18T07:07:14;29.00;35.30
81218;DHT22;70689;52.494;13.420;2023-09-18T07:09:41;30.50;32.30
81218;DHT22;70689;52.494;13.420;2023-09-18T07:12:08;31.00;30.90
81218;DHT22;70689;52.494;13.420;2023-09-18T07:14:35;30.30;31.60
81218;DHT22;70689;52.494;13.420;2023-09-18T07:17:01;29.40;33.10
81218;DHT22;70689;52.494;13.420;2023-09-18T07:19:27;29.10;33.40
81218;DHT22;70689;52.494;13.420;2023-09-18T07:21:53;28.60;35.00
81218;DHT22;70689;52.494;13.420;2023-09-18T07:24:18;27.90;36.60
81218;DHT22;70689;52.494;13.420;2023-09-18T07:26:49;27.80;37.30
81218;DHT22;70689;52.494;13.420;2023-09-18T07:29:15;27.90;36.40
81218;DHT22;70689;52.494;13.420;2023-09-18T07:31:44;27.60;37.20
81218;DHT22;70689;52.494;13.420;2023-09-18T07:34:10;27.60;37.40
81218;DHT22;70689;52.494;13.420;2023-09-18T07:36:36;27.60;36.80
81218;DHT22;70689;52.494;13.420;2023-09-18T07:39:03;27.80;36.20
81218;DHT22;70689;52.494;13.420;2023-09-18T07:41:30;27.60;36.40
81218;DHT22;70689;52.494;13.420;2023-09-18T07:43:56;27.20;37.90
81218;DHT22;70689;52.494;13.420;2023-09-18T07:46:23;27.00;38.10
81218;DHT22;70689;52.494;13.420;2023-09-18T07:48:49;26.60;38.80
81218;DHT22;70689;52.494;13.420;2023-09-18T07:51:15;26.30;39.50
81218;DHT22;70689;52.494;13.420;2023-09-18T07:53:43;26.00;40.40
81218;DHT22;70689;52.494;13.420;2023-09-18T07:56:09;25.70;41.50
81218;DHT22;70689;52.494;13.420;2023-09-18T07:58:35;25.50;42.30
81218;DHT22;70689;52.494;13.420;2023-09-18T08:01:04;25.40;42.70
81218;DHT22;70689;52.494;13.420;2023-09-18T08:03:30;25.60;42.40
81218;DHT22;70689;52.494;13.420;2023-09-18T08:05:56;25.90;41.80
81218;DHT22;70689;52.494;13.420;2023-09-18T08:08:23;26.00;40.80
81218;DHT22;70689;52.494;13.420;2023-09-18T08:10:50;26.90;38.80
81218;DHT22;70689;52.494;13.420;2023-09-18T08:13:16;27.40;37.60
81218;DHT22;70689;52.494;13.420;2023-09-18T08:15:43;27.80;37.40
81218;DHT22;70689;52.494;13.420;2023-09-18T08:18:09;27.90;35.90
81218;DHT22;70689;52.494;13.420;2023-09-18T08:20:39;28.00;36.30
81218;DHT22;70689;52.494;13.420;2023-09-18T08:23:05;28.40;35.80
81218;DHT22;70689;52.494;13.420;2023-09-18T08:25:31;28.20;36.00
81218;DHT22;70689;52.494;13.420;2023-09-18T08:27:58;27.50;37.10
81218;DHT22;70689;52.494;13.420;2023-09-18T08:30:23;27.00;38.70
81218;DHT22;70689;52.494;13.420;2023-09-18T08:32:50;26.70;39.40
81218;DHT22;70689;52.494;13.420;2023-09-18T08:35:15;26.90;39.00
81218;DHT22;70689;52.494;13.420;2023-09-18T08:37:41;26.90;39.20
81218;DHT22;70689;52.494;13.420;2023-09-18T08:40:11;26.60;39.70
81218;DHT22;70689;52.494;13.420;2023-09-18T08:42:44;26.70;39.50
81218;DHT22;70689;52.494;13.420;2023-09-18T08:45:15;26.90;39.10
81218;DHT22;70689;52.494;13.420;2023-09-18T08:47:41;27.20;38.50
81218;DHT22;70689;52.494;13.420;2023-09-18T08:50:08;27.60;37.30
81218;DHT22;70689;52.494;13.420;2023-09-18T08:52:36;28.40;34.80
81218;DHT22;70689;52.494;13.420;2023-09-18T08:55:03;28.80;34.30
81218;DHT22;70689;52.494;13.420;2023-09-18T08:57:30;28.70;34.90
81218;DHT22;70689;52.494;13.420;2023-09-18T08:59:56;28.40;35.60
81218;DHT22;70689;52.494;13.420;2023-09-18T09:02:30;28.00;36.30
81218;DHT22;70689;52.494;13.420;2023-09-18T09:04:56;27.60;37.40
81218;DHT22;70689;52.494;13.420;2023-09-18T09:07:22;27.60;37.60
81218;DHT22;70689;52.494;13.420;2023-09-18T09:09:47;27.50;37.70
81218;DHT22;70689;52.494;13.420;2023-09-18T09:12:13;27.60;37.50
81218;DHT22;70689;52.494;13.420;2023-09-18T09:14:38;27.50;37.50
81218;DHT22;70689;52.494;13.420;2023-09-18T09:17:04;27.40;37.60
81218;DHT22;70689;52.494;13.420;2023-09-18T09:19:34;27.30;37.90
81218;DHT22;70689;52.494;13.420;2023-09-18T09:22:08;27.60;37.30
81218;DHT22;70689;52.494;13.420;2023-09-18T09:24:39;28.00;36.50
81218;DHT22;70689;52.494;13.420;2023-09-18T09:27:05;28.40;36.20
81218;DHT22;70689;52.494;13.420;2023-09-18T09:29:31;28.70;34.60
81218;DHT22;70689;52.494;13.420;2023-09-18T09:32:05;29.20;33.90
81218;DHT22;70689;52.494;13.420;2023-09-18T09:34:36;29.70;32.50
81218;DHT22;70689;52.494;13.420;2023-09-18T09:37:02;29.60;33.00
81218;DHT22;70689;52.494;13.420;2023-09-18T09:39:29;29.40;33.20
81218;DHT22;70689;52.494;13.420;2023-09-18T09:42:00;29.20;33.70
81218;DHT22;70689;52.494;13.420;2023-09-18T09:44:26;28.80;33.70
81218;DHT22;70689;52.494;13.420;2023-09-18T09:46:54;28.70;33.60
81218;DHT22;70689;52.494;13.420;2023-09-18T09:49:20;28.60;34.10
81218;DHT22;70689;52.494;13.420;2023-09-18T09:51:48;28.60;34.30
81218;DHT22;70689;52.494;13.420;2023-09-18T09:54:14;28.40;34.70
81218;DHT22;70689;52.494;13.420;2023-09-18T09:56:48;28.20;34.50
81218;DHT22;70689;52.494;13.420;2023-09-18T09:59:17;28.00;35.10
81218;DHT22;70689;52.494;13.420;2023-09-18T10:01:47;28.00;35.00
81218;DHT22;70689;52.494;13.420;2023-09-18T10:04:15;27.90;35.40
81218;DHT22;70689;52.494;13.420;2023-09-18T10:06:51;28.00;35.70
81218;DHT22;70689;52.494;13.420;2023-09-18T10:09:17;28.10;36.10
81218;DHT22;70689;52.494;13.420;2023-09-18T10:11:48;28.10;35.30
81218;DHT22;70689;52.494;13.420;2023-09-18T10:14:20;28.20;35.00
81218;DHT22;70689;52.494;13.420;2023-09-18T10:16:50;28.10;35.30
81218;DHT22;70689;52.494;13.420;2023-09-18T10:19:31;28.20;35.30
81218;DHT22;70689;52.494;13.420;2023-09-18T10:22:08;28.00;35.30
81218;DHT22;70689;52.494;13.420;2023-09-18T10:24:37;27.90;35.20
81218;DHT22;70689;52.494;13.420;2023-09-18T10:27:06;28.00;35.40
81218;DHT22;70689;52.494;13.420;2023-09-18T10:29:36;27.90;35.30
81218;DHT22;70689;52.494;13.420;2023-09-18T10:32:03;27.90;35.60
81218;DHT22;70689;52.494;13.420;2023-09-18T10:34:38;27.70;35.50
81218;DHT22;70689;52.494;13.420;2023-09-18T10:37:05;27.80;35.70
81218;DHT22;70689;52.494;13.420;2023-09-18T10:39:35;28.00;34.90
81218;DHT22;70689;52.494;13.420;2023-09-18T10:42:02;28.00;34.60
81218;DHT22;70689;52.494;13.420;2023-09-18T10:44:29;28.10;34.80
81218;DHT22;70689;52.494;13.420;2023-09-18T10:46:57;28.10;34.70
81218;DHT22;70689;52.494;13.420;2023-09-18T10:49:24;28.00;35.00
81218;DHT22;70689;52.494;13.420;2023-09-18T10:51:54;28.10;34.50
81218;DHT22;70689;52.494;13.420;2023-09-18T10:54:24;28.00;34.40
81218;DHT22;70689;52.494;13.420;2023-09-18T10:56:50;27.90;35.20
81218;DHT22;70689;52.494;13.420;2023-09-18T10:59:17;27.90;35.00
81218;DHT22;70689;52.494;13.420;2023-09-18T11:01:43;27.80;35.20
81218;DHT22;70689;52.494;13.420;2023-09-18T11:04:10;27.80;35.70
81218;DHT22;70689;52.494;13.420;2023-09-18T11:09:24;27.90;35.20
81218;DHT22;70689;52.494;13.420;2023-09-18T11:12:09;27.90;35.90
81218;DHT22;70689;52.494;13.420;2023-09-18T11:14:45;27.80;36.10
81218;DHT22;70689;52.494;13.420;2023-09-18T11:17:30;27.60;36.10
81218;DHT22;70689;52.494;13.420;2023-09-18T11:20:17;27.50;36.00
81218;DHT22;70689;52.494;13.420;2023-09-18T11:27:57;27.40;36.90
81218;DHT22;70689;52.494;13.420;2023-09-18T11:30:22;27.40;37.10
81218;DHT22;70689;52.494;13.420;2023-09-18T11:32:52;27.40;37.10
81218;DHT22;70689;52.494;13.420;2023-09-18T11:35:18;27.40;37.50
81218;DHT22;70689;52.494;13.420;2023-09-18T11:37:45;27.40;37.30
81218;DHT22;70689;52.494;13.420;2023-09-18T11:40:31;27.40;37.10
81218;DHT22;70689;52.494;13.420;2023-09-18T11:43:23;27.40;37.60
81218;DHT22;70689;52.494;13.420;2023-09-18T11:45:59;27.30;37.70
81218;DHT22;70689;52.494;13.420;2023-09-18T11:48:27;27.10;38.20
81218;DHT22;70689;52.494;13.420;2023-09-18T11:50:56;27.10;38.50
81218;DHT22;70689;52.494;13.420;2023-09-18T11:53:24;27.30;37.80
81218;DHT22;70689;52.494;13.420;2023-09-18T11:55:52;27.20;38.40
81218;DHT22;70689;52.494;13.420;2023-09-18T11:58:17;27.10;38.50
81218;DHT22;70689;52.494;13.420;2023-09-18T12:00:47;27.10;38.70
81218;DHT22;70689;52.494;13.420;2023-09-18T12:03:21;27.10;38.90
81218;DHT22;70689;52.494;13.420;2023-09-18T12:05:58;27.00;38.70
81218;DHT22;70689;52.494;13.420;2023-09-18T12:08:25;27.10;38.80
81218;DHT22;70689;52.494;13.420;2023-09-18T12:10:53;27.20;38.10
81218;DHT22;70689;52.494;13.420;2023-09-18T12:13:18;27.30;37.70
81218;DHT22;70689;52.494;13.420;2023-09-18T12:15:44;27.40;37.80
81218;DHT22;70689;52.494;13.420;2023-09-18T12:18:10;27.40;37.60
81218;DHT22;70689;52.494;13.420;2023-09-18T12:20:50;27.60;37.20
81218;DHT22;70689;52.494;13.420;2023-09-18T12:23:16;27.70;36.90
81218;DHT22;70689;52.494;13.420;2023-09-18T12:25:47;27.80;36.70
81218;DHT22;70689;52.494;13.420;2023-09-18T12:28:13;27.90;36.30
81218;DHT22;70689;52.494;13.420;2023-09-18T12:30:43;27.90;36.30
81218;DHT22;70689;52.494;13.420;2023-09-18T12:33:14;27.80;36.20
81218;DHT22;70689;52.494;13.420;2023-09-18T12:35:40;27.80;36.30
81218;DHT22;70689;52.494;13.420;2023-09-18T12:38:19;27.90;36.00
81218;DHT22;70689;52.494;13.420;2023-09-18T12:40:49;27.80;36.20
81218;DHT22;70689;52.494;13.420;2023-09-18T12:43:15;28.00;35.90
81218;DHT22;70689;52.494;13.420;2023-09-18T12:45:42;27.80;36.40
81218;DHT22;70689;52.494;13.420;2023-09-18T12:48:09;27.70;36.50
81218;DHT22;70689;52.494;13.420;2023-09-18T12:50:35;27.60;36.90
81218;DHT22;70689;52.494;13.420;2023-09-18T12:53:12;27.50;37.20
81218;DHT22;70689;52.494;13.420;2023-09-18T12:55:38;27.40;37.50
81218;DHT22;70689;52.494;13.420;2023-09-18T12:58:09;27.50;37.40
81218;DHT22;70689;52.494;13.420;2023-09-18T13:00:35;27.40;37.40
81218;DHT22;70689;52.494;13.420;2023-09-18T13:03:02;27.30;37.80
81218;DHT22;70689;52.494;13.420;2023-09-18T13:05:30;27.20;38.10
81218;DHT22;70689;52.494;13.420;2023-09-18T13:08:03;27.00;38.00
81218;DHT22;70689;52.494;13.420;2023-09-18T13:10:39;26.90;38.40
81218;DHT22;70689;52.494;13.420;2023-09-18T13:13:05;26.80;38.30
81218;DHT22;70689;52.494;13.420;2023-09-18T13:15:32;26.80;38.40
81218;DHT22;70689;52.494;13.420;2023-09-18T13:18:00;26.60;39.10
81218;DHT22;70689;52.494;13.420;2023-09-18T13:20:27;26.60;39.70
81218;DHT22;70689;52.494;13.420;2023-09-18T13:22:58;26.50;39.70
81218;DHT22;70689;52.494;13.420;2023-09-18T13:25:33;26.50;39.80
81218;DHT22;70689;52.494;13.420;2023-09-18T13:28:00;26.60;39.90
81218;DHT22;70689;52.494;13.420;2023-09-18T13:30:27;26.70;39.60
81218;DHT22;70689;52.494;13.420;2023-09-18T13:33:02;26.70;39.90
81218;DHT22;70689;52.494;13.420;2023-09-18T13:35:29;26.70;39.80
81218;DHT22;70689;52.494;13.420;2023-09-18T13:37:55;26.60;40.00
81218;DHT22;70689;52.494;13.420;2023-09-18T13:40:20;26.50;40.70
81218;DHT22;70689;52.494;13.420;2023-09-18T13:42:48;26.50;41.40
81218;DHT22;70689;52.494;13.420;2023-09-18T13:45:16;26.30;42.30
81218;DHT22;70689;52.494;13.420;2023-09-18T13:47:42;26.30;42.70
81218;DHT22;70689;52.494;13.420;2023-09-18T13:50:08;26.20;43.40
81218;DHT22;70689;52.494;13.420;2023-09-18T13:52:35;26.30;44.00
81218;DHT22;70689;52.494;13.420;2023-09-18T13:55:02;26.20;44.90
81218;DHT22;70689;52.494;13.420;2023-09-18T13:57:31;26.20;44.90
81218;DHT22;70689;52.494;13.420;2023-09-18T13:59:56;26.30;45.00
81218;DHT22;70689;52.494;13.420;2023-09-18T14:02:22;26.40;46.00
81218;DHT22;70689;52.494;13.420;2023-09-18T14:04:55;26.30;43.30
81218;DHT22;70689;52.494;13.420;2023-09-18T14:07:21;26.20;43.70
81218;DHT22;70689;52.494;13.420;2023-09-18T14:09:48;26.30;43.90
81218;DHT22;70689;52.494;13.420;2023-09-18T14:12:14;26.30;45.00
81218;DHT22;70689;52.494;13.420;2023-09-18T14:14:41;26.40;44.90
81218;DHT22;70689;52.494;13.420;2023-09-18T14:17:10;26.50;44.40
81218;DHT22;70689;52.494;13.420;2023-09-18T14:19:36;26.60;44.40
81218;DHT22;70689;52.494;13.420;2023-09-18T14:22:05;26.60;43.50
81218;DHT22;70689;52.494;13.420;2023-09-18T14:24:32;26.50;44.60
81218;DHT22;70689;52.494;13.420;2023-09-18T14:27:00;26.40;44.70
81218;DHT22;70689;52.494;13.420;2023-09-18T14:29:26;26.40;45.20
81218;DHT22;70689;52.494;13.420;2023-09-18T14:31:52;26.30;44.90
81218;DHT22;70689;52.494;13.420;2023-09-18T14:34:18;26.30;45.00
81218;DHT22;70689;52.494;13.420;2023-09-18T14:36:43;26.00;44.90
81218;DHT22;70689;52.494;13.420;2023-09-18T14:39:10;25.80;45.00
81218;DHT22;70689;52.494;13.420;2023-09-18T14:41:37;25.70;45.30
81218;DHT22;70689;52.494;13.420;2023-09-18T14:44:07;25.60;45.00
81218;DHT22;70689;52.494;13.420;2023-09-18T14:46:34;25.50;45.50
81218;DHT22;70689;52.494;13.420;2023-09-18T14:49:01;25.40;44.20
81218;DHT22;70689;52.494;13.420;2023-09-18T14:51:27;25.40;44.50
81218;DHT22;70689;52.494;13.420;2023-09-18T14:53:56;25.40;44.80
81218;DHT22;70689;52.494;13.420;2023-09-18T14:56:22;25.50;44.50
81218;DHT22;70689;52.494;13.420;2023-09-18T14:58:48;25.60;44.10
81218;DHT22;70689;52.494;13.420;2023-09-18T15:01:14;25.60;43.80
81218;DHT22;70689;52.494;13.420;2023-09-18T15:03:40;25.60;43.70
81218;DHT22;70689;52.494;13.420;2023-09-18T15:06:06;25.60;43.20
81218;DHT22;70689;52.494;13.420;2023-09-18T15:08:33;25.70;43.00
81218;DHT22;70689;52.494;13.420;2023-09-18T15:11:00;25.70;42.60
81218;DHT22;70689;52.494;13.420;2023-09-18T15:13:25;25.80;42.60
81218;DHT22;70689;52.494;13.420;2023-09-18T15:15:51;25.80;42.30
81218;DHT22;70689;52.494;13.420;2023-09-18T15:18:16;25.70;42.30
81218;DHT22;70689;52.494;13.420;2023-09-18T15:20:42;25.60;42.70
81218;DHT22;70689;52.494;13.420;2023-09-18T15:23:08;25.70;42.60
81218;DHT22;70689;52.494;13.420;2023-09-18T15:25:35;25.60;42.50
81218;DHT22;70689;52.494;13.420;2023-09-18T15:28:04;25.50;42.50
81218;DHT22;70689;52.494;13.420;2023-09-18T15:30:33;25.40;43.00
81218;DHT22;70689;52.494;13.420;2023-09-18T15:33:01;25.50;42.70